Time;durP1;ratioP1;P1;durP2;ratioP2;P2;SDS_P1;SDS_P2;PMS_P1;PMS_P2;Temp;Humidity;BMP_temperature;BMP_pressure;BME280_temperature;BME280_humidity;BME280_pressure;Samples;Min_cycle;Max_cycle;Signal;HPM_P1;HPM_P2
2023/09/17 00:01:24;;;;;;;13.07;9.60;;;;;;;17.17;100.00;100532.75;5013585;28;20394;-77
2023/09/17 00:03:52;;;;;;;;;;;;;;;17.13;100.00;100524.38;5015026;28;20475;-77
2023/09/17 00:06:18;;;;;;;13.50;9.63;;;;;;;17.09;100.00;100526.78;5014718;28;19916;-77
2023/09/17 00:08:46;;;;;;;13.52;9.73;;;;;;;17.07;100.00;100522.84;5013462;28;20038;-76
2023/09/17 00:11:12;;;;;;;16.40;9.55;;;;;;;17.07;100.00;100523.63;5015046;28;20104;-76
2023/09/17 00:13:39;;;;;;;13.60;10.15;;;;;;;17.04;100.00;100521.03;5015153;28;20112;-77
2023/09/17 00:16:05;;;;;;;15.70;9.75;;;;;;;17.02;100.00;100524.44;5014612;28;20029;-78
2023/09/17 00:18:32;;;;;;;14.48;9.68;;;;;;;16.98;100.00;100523.94;5014741;28;20042;-77
2023/09/17 00:20:58;;;;;;;14.02;9.27;;;;;;;16.95;100.00;100528.66;5015591;28;20033;-77
2023/09/17 00:23:32;;;;;;;15.25;10.20;;;;;;;16.95;100.00;100517.13;5015533;28;20368;-77
2023/09/17 00:25:58;;;;;;;13.35;10.10;;;;;;;16.91;100.00;100513.72;5015766;28;20029;-77
2023/09/17 00:28:24;;;;;;;17.83;10.45;;;;;;;16.93;100.00;100518.97;5015852;28;20116;-77
2023/09/17 00:30:49;;;;;;;18.23;10.30;;;;;;;16.91;100.00;100515.81;5014938;28;20478;-76
2023/09/17 00:33:17;;;;;;;15.10;10.30;;;;;;;16.86;100.00;100510.88;5016547;28;20033;-76
2023/09/17 00:35:43;;;;;;;14.40;10.45;;;;;;;16.85;100.00;100517.94;5016456;28;20034;-77
2023/09/17 00:38:10;;;;;;;16.20;10.48;;;;;;;16.81;100.00;100521.13;5015764;28;20048;-77
2023/09/17 00:40:38;;;;;;;14.50;10.02;;;;;;;16.80;100.00;100521.63;5015904;28;20384;-76
2023/09/17 00:43:04;;;;;;;16.38;10.48;;;;;;;16.78;100.00;100518.53;4998578;28;20030;-76
2023/09/17 00:45:31;;;;;;;19.15;11.48;;;;;;;16.74;100.00;100520.91;5014500;28;20047;-76
2023/09/17 00:47:57;;;;;;;16.75;10.23;;;;;;;16.71;100.00;100519.84;5014623;28;20021;-77
2023/09/17 00:50:23;;;;;;;17.88;11.80;;;;;;;16.67;100.00;100515.66;5015258;28;20036;-76
2023/09/17 00:52:50;;;;;;;13.60;10.27;;;;;;;16.64;100.00;100511.75;5014496;28;20038;-76
2023/09/17 00:55:16;;;;;;;16.63;11.25;;;;;;;16.61;100.00;100495.50;5014099;28;20030;-77
2023/09/17 00:57:45;;;;;;;15.75;10.63;;;;;;;16.55;100.00;100494.72;5012474;28;20034;-77
2023/09/17 01:00:11;;;;;;;18.40;11.43;;;;;;;16.58;100.00;100493.69;5014014;28;20061;-76
2023/09/17 01:02:52;;;;;;;15.25;11.60;;;;;;;16.60;100.00;100498.94;5014945;28;20112;-77
2023/09/17 01:05:18;;;;;;;17.27;11.67;;;;;;;16.58;100.00;100498.66;5031258;28;20045;-76
2023/09/17 01:07:44;;;;;;;16.50;10.68;;;;;;;16.58;100.00;100493.69;5015780;28;20281;-76
2023/09/17 01:10:10;;;;;;;17.48;11.02;;;;;;;16.59;100.00;100495.25;5014389;28;20029;-77
2023/09/17 01:12:36;;;;;;;15.70;10.93;;;;;;;16.59;100.00;100492.38;5015320;28;20041;-76
2023/09/17 01:15:09;;;;;;;17.50;10.70;;;;;;;16.62;100.00;100484.75;5015528;28;20104;-77
2023/09/17 01:17:43;;;;;;;13.75;10.25;;;;;;;16.62;100.00;100494.19;4997230;28;20113;-76
2023/09/17 01:20:24;;;;;;;20.08;10.23;;;;;;;16.63;100.00;100483.44;5015175;28;20045;-77
2023/09/17 01:22:52;;;;;;;20.23;10.30;;;;;;;16.63;100.00;100489.97;5028070;28;20037;-76
2023/09/17 01:25:21;;;;;;;16.23;10.20;;;;;;;16.62;100.00;100482.63;5029848;28;20026;-76
2023/09/17 01:27:48;;;;;;;21.27;10.93;;;;;;;16.63;100.00;100484.22;5013078;28;20116;-77
2023/09/17 01:30:16;;;;;;;15.55;9.75;;;;;;;16.61;100.00;100486.03;5012710;28;20026;-78
2023/09/17 01:32:42;;;;;;;16.10;10.30;;;;;;;16.64;100.00;100482.13;5013095;28;20022;-78
2023/09/17 01:35:11;;;;;;;15.38;9.82;;;;;;;16.65;100.00;100483.69;5028624;28;20049;-76
2023/09/17 01:37:41;;;;;;;13.88;10.38;;;;;;;16.63;100.00;100489.97;5028241;28;20095;-77
2023/09/17 01:40:12;;;;;;;21.95;11.98;;;;;;;16.62;100.00;100487.63;5012352;28;20070;-77
2023/09/17 01:42:45;;;;;;;13.07;9.68;;;;;;;16.60;100.00;100485.25;5012920;28;20044;-76
2023/09/17 01:45:14;;;;;;;17.85;10.77;;;;;;;16.57;100.00;100485.53;5011651;28;20034;-77
2023/09/17 01:47:42;;;;;;;18.77;10.75;;;;;;;16.51;100.00;100477.66;5029018;28;20137;-77
2023/09/17 01:50:25;;;;;;;16.95;10.32;;;;;;;16.49;100.00;100477.44;5012479;28;20038;-77
2023/09/17 01:52:51;;;;;;;14.18;10.02;;;;;;;16.46;100.00;100480.56;5027689;28;20029;-76
2023/09/17 01:55:21;;;;;;;16.50;10.55;;;;;;;16.43;100.00;100482.44;5011736;28;20481;-76
2023/09/17 01:57:46;;;;;;;14.82;9.68;;;;;;;16.40;100.00;100469.03;5012162;28;20022;-76
2023/09/17 02:00:16;;;;;;;19.08;11.02;;;;;;;16.41;100.00;100487.13;5012793;28;20054;-76
2023/09/17 02:02:51;;;;;;;13.82;10.73;;;;;;;16.38;100.00;100476.66;5012830;28;20037;-77
2023/09/17 02:05:17;;;;;;;18.98;11.20;;;;;;;16.37;100.00;100490.31;5012998;28;20533;-76
2023/09/17 02:07:44;;;;;;;15.43;10.27;;;;;;;16.35;100.00;100474.84;5012157;28;20109;-77
2023/09/17 02:10:11;;;;;;;18.45;11.82;;;;;;;16.34;100.00;100479.84;5012574;28;20509;-77
2023/09/17 02:12:38;;;;;;;22.25;11.85;;;;;;;16.32;100.00;100473.00;4995993;28;20065;-76
2023/09/17 02:15:06;;;;;;;17.70;10.57;;;;;;;16.30;100.00;100473.56;4995979;28;20056;-77
2023/09/17 02:17:46;;;;;;;16.13;11.63;;;;;;;16.28;100.00;100473.28;5012330;28;20121;-76
2023/09/17 02:20:11;;;;;;;16.52;10.57;;;;;;;16.26;100.00;100467.25;5029036;28;20076;-78
2023/09/17 02:22:39;;;;;;;15.88;11.25;;;;;;;16.25;100.00;100467.81;5012334;28;20474;-77
2023/09/17 02:25:06;;;;;;;20.27;10.98;;;;;;;16.24;100.00;100472.00;5012533;28;20068;-76
2023/09/17 02:27:33;;;;;;;19.17;12.02;;;;;;;16.23;100.00;100470.44;5012071;28;20022;-76
2023/09/17 02:29:59;;;;;;;22.73;11.88;;;;;;;16.23;100.00;100471.22;5028742;28;20030;-75
2023/09/17 02:32:24;;;;;;;24.98;11.55;;;;;;;16.22;100.00;100460.97;5011752;28;20471;-76
2023/09/17 02:34:49;;;;;;;16.10;10.45;;;;;;;16.23;100.00;100461.78;5012671;28;20036;-76
2023/09/17 02:37:23;;;;;;;21.15;11.05;;;;;;;16.23;100.00;100465.44;5010933;28;20037;-77
2023/09/17 02:39:49;;;;;;;13.43;10.55;;;;;;;16.25;100.00;100467.81;5012291;28;20029;-77
2023/09/17 02:42:14;;;;;;;15.77;10.85;;;;;;;16.24;100.00;100460.47;5012115;28;20049;-76
2023/09/17 02:44:40;;;;;;;15.85;11.20;;;;;;;16.18;100.00;100454.72;5011000;28;20037;-77
2023/09/17 02:47:05;;;;;;;15.65;11.48;;;;;;;16.18;100.00;100469.13;5011151;28;20037;-77
2023/09/17 02:49:31;;;;;;;17.10;11.50;;;;;;;16.15;100.00;100463.63;5012948;28;20014;-76
2023/09/17 02:51:59;;;;;;;17.17;11.35;;;;;;;16.12;100.00;100474.91;5013401;28;20022;-76
2023/09/17 02:54:27;;;;;;;17.05;11.60;;;;;;;16.08;100.00;100465.75;5013219;28;20060;-78
2023/09/17 02:57:02;;;;;;;15.10;10.88;;;;;;;16.07;100.00;100463.38;5028431;28;20034;-77
2023/09/17 02:59:27;;;;;;;18.88;10.88;;;;;;;16.05;100.00;100458.16;5012297;28;20085;-77
2023/09/17 03:01:53;;;;;;;17.08;11.13;;;;;;;16.03;100.00;100454.22;5012025;28;20069;-77
2023/09/17 03:04:19;;;;;;;17.95;11.15;;;;;;;16.03;100.00;100463.66;5013490;28;20022;-77
2023/09/17 03:06:45;;;;;;;18.00;11.70;;;;;;;16.03;100.00;100460.78;5011907;28;20170;-76
2023/09/17 03:09:11;;;;;;;17.67;11.38;;;;;;;16.00;100.00;100458.97;5013030;28;20471;-77
2023/09/17 03:11:39;;;;;;;16.15;11.18;;;;;;;16.00;100.00;100458.97;5013407;28;20036;-76
2023/09/17 03:14:05;;;;;;;16.45;10.85;;;;;;;15.98;100.00;100457.91;5012051;28;20453;-78
2023/09/17 03:16:31;;;;;;;17.63;10.73;;;;;;;15.94;100.00;100458.19;5012225;28;20060;-77
2023/09/17 03:18:56;;;;;;;21.05;11.95;;;;;;;15.92;100.00;100460.00;4995506;28;20060;-76
2023/09/17 03:21:22;;;;;;;15.85;10.38;;;;;;;15.90;100.00;100465.53;5017026;28;20360;-75
2023/09/17 03:23:56;;;;;;;15.68;10.90;;;;;;;15.89;100.00;100464.75;5016663;28;20045;-76
2023/09/17 03:26:24;;;;;;;15.70;11.73;;;;;;;15.86;100.00;100460.00;5016859;28;20052;-76
2023/09/17 03:28:50;;;;;;;27.98;12.60;;;;;;;15.86;100.00;100465.78;5015569;28;20037;-76
2023/09/17 03:31:15;;;;;;;17.55;10.60;;;;;;;15.85;100.00;100463.44;5016646;28;20390;-77
2023/09/17 03:33:41;;;;;;;19.85;11.65;;;;;;;15.83;100.00;100458.19;5016752;28;20168;-76
2023/09/17 03:36:08;;;;;;;14.50;10.38;;;;;;;15.82;100.00;100465.25;5015208;28;20107;-76
2023/09/17 03:38:34;;;;;;;17.02;10.57;;;;;;;15.81;100.00;100472.31;5016948;28;20487;-77
2023/09/17 03:41:00;;;;;;;18.58;10.73;;;;;;;15.78;100.00;100473.38;5016769;28;20103;-77
2023/09/17 03:43:27;;;;;;;18.73;11.45;;;;;;;15.77;100.00;100474.69;4999174;28;20076;-76
2023/09/17 03:45:54;;;;;;;16.33;10.60;;;;;;;15.74;100.00;100466.31;5015606;28;20030;-76
2023/09/17 03:48:21;;;;;;;25.15;13.43;;;;;;;15.72;100.00;100463.16;5016736;28;20494;-75
2023/09/17 03:50:49;;;;;;;17.50;12.32;;;;;;;15.69;100.00;100465.81;5017078;28;20500;-77
2023/09/17 03:53:15;;;;;;;17.88;11.68;;;;;;;15.67;100.00;100465.53;5015108;28;20037;-76
2023/09/17 03:55:41;;;;;;;17.08;11.15;;;;;;;15.66;100.00;100452.44;5016728;28;20025;-76
2023/09/17 03:58:08;;;;;;;16.15;11.18;;;;;;;15.65;100.00;100450.88;5031411;28;20512;-77
2023/09/17 04:00:35;;;;;;;13.80;10.52;;;;;;;15.66;100.00;100448.78;5014961;28;20029;-75
2023/09/17 04:03:04;;;;;;;17.25;10.98;;;;;;;15.66;100.00;100449.56;5031244;28;20068;-75
2023/09/17 04:05:30;;;;;;;16.90;10.68;;;;;;;15.64;100.00;100452.19;5016633;28;20042;-75
2023/09/17 04:07:55;;;;;;;16.85;11.55;;;;;;;15.64;100.00;100446.44;5016359;28;20442;-76
2023/09/17 04:10:21;;;;;;;17.52;10.93;;;;;;;15.65;100.00;100455.88;5017113;28;20026;-76
2023/09/17 04:12:48;;;;;;;17.52;11.93;;;;;;;15.63;100.00;100467.91;5016053;28;20026;-76
2023/09/17 04:15:25;;;;;;;19.67;11.95;;;;;;;15.64;100.00;100455.06;5016573;28;20033;-75
2023/09/17 04:17:51;;;;;;;16.67;11.52;;;;;;;15.63;100.00;100465.03;5015916;28;20379;-76
2023/09/17 04:20:18;;;;;;;21.00;11.80;;;;;;;15.63;100.00;100467.91;5014524;28;20037;-76
2023/09/17 04:22:48;;;;;;;16.48;11.52;;;;;;;15.61;100.00;100466.88;5014782;28;20037;-77
2023/09/17 04:25:17;;;;;;;18.73;11.35;;;;;;;15.60;100.00;100471.84;5014650;28;20025;-77
2023/09/17 04:27:44;;;;;;;25.08;10.43;;;;;;;15.61;100.00;100472.63;5014397;28;20084;-75
2023/09/17 04:30:13;;;;;;;17.40;11.00;;;;;;;15.62;100.00;100477.06;5031097;28;20034;-76
2023/09/17 04:32:50;;;;;;;16.63;10.95;;;;;;;15.62;100.00;100477.84;5014418;28;20037;-76
2023/09/17 04:35:17;;;;;;;17.80;10.18;;;;;;;15.63;100.00;100476.53;5014385;28;20018;-76
2023/09/17 04:37:44;;;;;;;19.05;11.18;;;;;;;15.64;100.00;100472.34;5014775;28;20414;-76
2023/09/17 04:40:11;;;;;;;19.83;10.98;;;;;;;15.65;100.00;100473.16;5031021;28;20656;-76
2023/09/17 04:42:40;;;;;;;20.98;11.13;;;;;;;15.63;100.00;100475.75;5014175;28;20033;-75
2023/09/17 04:45:08;;;;;;;16.02;10.43;;;;;;;15.64;100.00;100480.22;5014137;28;20033;-76
2023/09/17 04:47:42;;;;;;;17.63;11.20;;;;;;;15.65;100.00;100476.03;5014141;28;20157;-76
2023/09/17 04:50:09;;;;;;;15.32;9.70;;;;;;;15.63;100.00;100475.75;5013930;28;20087;-77
2023/09/17 04:52:36;;;;;;;14.45;9.25;;;;;;;15.64;100.00;100483.88;5014044;28;20117;-76
2023/09/17 04:55:22;;;;;;;15.32;9.63;;;;;;;15.66;100.00;100484.13;5014103;28;20097;-76
2023/09/17 04:57:50;;;;;;;14.70;10.20;;;;;;;15.67;100.00;100490.69;5015046;28;20030;-75
2023/09/17 05:00:15;;;;;;;14.60;10.70;;;;;;;15.67;100.00;100494.34;5015389;28;20030;-76
2023/09/17 05:02:41;;;;;;;13.38;10.70;;;;;;;15.73;100.00;100496.44;5013713;28;20382;-76
2023/09/17 05:05:09;;;;;;;16.75;10.13;;;;;;;15.74;100.00;100500.91;5030171;28;20422;-77
2023/09/17 05:07:40;;;;;;;13.85;10.10;;;;;;;15.77;100.00;100500.63;5015138;28;20057;-78
2023/09/17 05:10:07;;;;;;;17.70;11.60;;;;;;;15.81;100.00;100500.38;5014832;28;20406;-77
2023/09/17 05:12:34;;;;;;;17.85;10.98;;;;;;;15.85;100.00;100498.81;5013667;28;20026;-77
2023/09/17 05:15:00;;;;;;;18.70;10.27;;;;;;;15.87;100.00;100512.66;5013860;28;20096;-76
2023/09/17 05:17:26;;;;;;;15.25;10.02;;;;;;;15.88;100.00;100503.50;5013661;28;20065;-77
2023/09/17 05:19:51;;;;;;;15.35;9.93;;;;;;;15.91;100.00;100505.31;5014777;28;20034;-77
2023/09/17 05:22:18;;;;;;;17.20;10.80;;;;;;;15.96;100.00;100515.28;5013537;28;20116;-77
2023/09/17 05:24:45;;;;;;;14.57;8.88;;;;;;;16.01;100.00;100515.28;5015233;28;20018;-78
2023/09/17 05:27:12;;;;;;;18.00;10.23;;;;;;;16.02;100.00;100505.31;5015183;28;20022;-77
2023/09/17 05:29:43;;;;;;;15.98;9.93;;;;;;;16.10;100.00;100517.91;5014804;28;20463;-76
2023/09/17 05:32:09;;;;;;;15.07;9.23;;;;;;;16.14;100.00;100517.63;5013405;28;20026;-76
2023/09/17 05:34:35;;;;;;;16.63;10.00;;;;;;;16.22;100.00;100523.63;5014654;28;20037;-77
2023/09/17 05:37:03;;;;;;;16.15;9.52;;;;;;;16.29;100.00;100526.00;5014656;28;20363;-77
2023/09/17 05:39:29;;;;;;;13.93;10.68;;;;;;;16.36;100.00;100519.66;5014382;28;20048;-77
2023/09/17 05:41:55;;;;;;;17.45;9.23;;;;;;;16.43;100.00;100525.69;5014226;28;20042;-77
2023/09/17 05:44:22;;;;;;;16.00;10.27;;;;;;;16.50;100.00;100518.59;5013306;28;20022;-77
2023/09/17 05:46:48;;;;;;;15.25;9.75;;;;;;;16.56;100.00;100522.25;5014095;28;20109;-76
2023/09/17 05:49:14;;;;;;;15.00;9.77;;;;;;;16.63;100.00;100515.97;5014550;28;20448;-78
2023/09/17 05:51:41;;;;;;;11.85;9.25;;;;;;;16.67;100.00;100525.13;5013126;28;20030;-78
2023/09/17 05:54:07;;;;;;;17.08;9.65;;;;;;;16.73;100.00;100522.22;5014581;28;20037;-78
2023/09/17 05:56:34;;;;;;;14.30;9.88;;;;;;;16.84;100.00;100530.84;5013276;28;20179;-79
2023/09/17 05:58:59;;;;;;;15.82;9.85;;;;;;;16.90;100.00;100529.47;5013204;28;20030;-77
2023/09/17 06:01:27;;;;;;;14.65;8.20;;;;;;;17.04;100.00;100533.38;5014697;28;20024;-78
2023/09/17 06:03:55;;;;;;;11.80;8.93;;;;;;;17.53;100.00;100534.41;5014319;28;20029;-77
2023/09/17 06:06:20;;;;;;;12.43;8.43;;;;;;;18.60;100.00;100540.78;5015016;28;20415;-77
2023/09/17 06:08:50;;;;;;;12.65;8.27;;;;;;;19.90;100.00;100524.75;5015029;28;20038;-77
2023/09/17 06:11:18;;;;;;;9.98;7.05;;;;;;;21.29;100.00;100513.28;5014427;28;20042;-78
2023/09/17 06:13:45;;;;;;;9.35;6.97;;;;;;;22.63;100.00;100512.81;5012999;28;20382;-77
2023/09/17 06:16:18;;;;;;;10.02;7.13;;;;;;;23.87;100.00;100496.78;5014508;28;20045;-78
2023/09/17 06:18:45;;;;;;;10.70;7.53;;;;;;;24.95;100.00;100491.81;5014611;28;20038;-76
2023/09/17 06:21:12;;;;;;;11.57;7.40;;;;;;;26.03;100.00;100487.69;5012619;28;20026;-74
2023/09/17 06:23:38;;;;;;;9.45;7.00;;;;;;;26.95;100.00;100478.81;5014201;28;20041;-76
2023/09/17 06:26:07;;;;;;;10.05;6.75;;;;;;;27.73;100.00;100481.69;5013936;28;20022;-76
2023/09/17 06:28:33;;;;;;;6.72;6.03;;;;;;;28.46;100.00;100469.91;5014010;28;20037;-75
2023/09/17 06:31:02;;;;;;;10.43;6.50;;;;;;;29.03;100.00;100474.31;5013736;28;20030;-76
2023/09/17 06:33:29;;;;;;;6.63;5.72;;;;;;;29.66;100.00;100471.72;5012364;28;20030;-77
2023/09/17 06:35:57;;;;;;;11.70;5.30;;;;;;;30.24;100.00;100471.50;5012640;28;20042;-77
2023/09/17 06:38:24;;;;;;;7.45;6.15;;;;;;;30.79;100.00;100469.44;5012422;28;20426;-79
2023/09/17 06:40:50;;;;;;;6.35;5.45;;;;;;;31.19;100.00;100478.13;5013563;28;20472;-79
2023/09/17 06:43:16;;;;;;;9.05;5.80;;;;;;;31.40;100.00;100483.22;5013563;28;20105;-78
2023/09/17 06:45:43;;;;;;;7.15;5.28;;;;;;;31.71;100.00;100474.16;5012686;28;20068;-80
2023/09/17 06:48:11;;;;;;;10.18;5.10;;;;;;;32.08;100.00;100475.13;5013419;28;20022;-77
2023/09/17 06:50:38;;;;;;;6.22;5.30;;;;;;;32.33;100.00;100476.66;5013954;28;20022;-76
2023/09/17 06:53:06;;;;;;;6.18;4.78;;;;;;;32.47;98.23;100477.53;5013754;28;20076;-79
2023/09/17 06:55:34;;;;;;;5.03;4.53;;;;;;;32.60;94.50;100488.72;5016134;28;20109;-79
2023/09/17 06:58:01;;;;;;;9.30;4.25;;;;;;;32.62;93.95;100489.63;5017484;28;20108;-82
2023/09/17 07:00:29;;;;;;;6.15;4.47;;;;;;;32.67;96.04;100488.47;5017477;28;20514;-82
2023/09/17 07:02:56;;;;;;;6.18;4.63;;;;;;;32.89;95.54;100489.03;5018035;28;20029;-79
2023/09/17 07:05:22;;;;;;;4.82;4.25;;;;;;;32.87;93.82;100485.22;5017869;28;20034;-80
2023/09/17 07:07:48;;;;;;;5.97;4.25;;;;;;;32.64;94.11;100483.81;5016529;28;20105;-79
2023/09/17 07:10:15;;;;;;;4.15;3.35;;;;;;;32.61;95.46;100491.03;5018308;28;20037;-79
2023/09/17 07:12:43;;;;;;;5.15;4.05;;;;;;;32.70;93.37;100480.47;5024266;28;20026;-80
2023/09/17 07:15:12;;;;;;;3.95;3.55;;;;;;;32.80;93.60;100489.97;5025110;28;20036;-81
2023/09/17 07:17:39;;;;;;;5.75;3.75;;;;;;;32.90;92.73;100477.97;5015864;28;20026;-84
2023/09/17 07:20:06;;;;;;;9.27;4.18;;;;;;;33.06;92.97;100479.72;5016332;28;20100;-78
2023/09/17 07:22:31;;;;;;;4.55;3.90;;;;;;;33.25;91.41;100477.88;5016151;28;20033;-78
2023/09/17 07:24:58;;;;;;;4.88;4.20;;;;;;;33.30;87.29;100473.72;5015956;28;20394;-78
2023/09/17 07:27:29;;;;;;;8.73;4.65;;;;;;;33.23;86.52;100460.72;5015970;28;20113;-76
2023/09/17 07:29:56;;;;;;;;;;;;;;;33.17;88.51;100469.28;5017702;28;20029;-78
2023/09/17 07:32:27;;;;;;;4.70;4.25;;;;;;;32.97;88.19;100482.84;5017198;28;19910;-78
2023/09/17 07:34:53;;;;;;;6.85;3.92;;;;;;;32.75;87.97;100481.50;5015924;28;20030;-79
2023/09/17 07:37:20;;;;;;;6.75;4.18;;;;;;;32.58;90.12;100483.47;5016997;28;20355;-77
2023/09/17 07:39:57;;;;;;;5.07;3.33;;;;;;;32.55;90.02;100478.03;5016638;28;20091;-76
2023/09/17 07:42:24;;;;;;;4.15;3.55;;;;;;;32.63;91.07;100485.25;5031833;28;20029;-78
2023/09/17 07:44:50;;;;;;;4.72;3.33;;;;;;;32.65;90.20;100478.66;5015968;28;20475;-77
2023/09/17 07:47:17;;;;;;;3.40;3.00;;;;;;;32.45;89.42;100483.31;5016551;28;20029;-78
2023/09/17 07:49:43;;;;;;;5.38;3.40;;;;;;;32.23;89.16;100480.53;5015281;28;20105;-77
2023/09/17 07:52:10;;;;;;;4.25;3.42;;;;;;;32.12;88.11;100471.63;5015309;28;20213;-77
2023/09/17 07:54:40;;;;;;;3.75;3.05;;;;;;;32.04;89.60;100474.88;5016335;28;20030;-76
2023/09/17 07:57:09;;;;;;;3.88;3.17;;;;;;;31.93;88.15;100474.84;5015443;28;20467;-77
2023/09/17 07:59:35;;;;;;;3.17;2.88;;;;;;;31.64;89.43;100481.84;5015018;28;20196;-76
2023/09/17 08:02:03;;;;;;;3.95;3.30;;;;;;;31.24;89.11;100485.84;5014938;28;20136;-77
2023/09/17 08:04:30;;;;;;;4.35;3.17;;;;;;;30.83;90.99;100481.53;5031250;28;20030;-78
2023/09/17 08:07:00;;;;;;;5.60;3.83;;;;;;;30.63;93.51;100480.88;5015326;28;20034;-75
2023/09/17 08:09:26;;;;;;;3.67;2.90;;;;;;;30.52;93.74;100478.59;5016266;28;20025;-76
2023/09/17 08:11:52;;;;;;;3.10;2.83;;;;;;;30.53;95.07;100477.97;5016433;28;20022;-75
2023/09/17 08:14:22;;;;;;;3.30;3.00;;;;;;;30.54;95.16;100481.72;5013634;28;20042;-76
2023/09/17 08:17:04;;;;;;;5.78;3.03;;;;;;;30.40;94.22;100477.78;5016273;28;20030;-76
2023/09/17 08:19:30;;;;;;;;;;;;;;;30.17;97.30;100487.19;5016287;28;20109;-76
2023/09/17 08:21:55;;;;;;;3.58;2.80;;;;;;;30.16;100.00;100481.94;5030989;28;20278;-76
2023/09/17 08:24:21;;;;;;;3.33;2.80;;;;;;;30.30;100.00;100480.78;5014651;28;20026;-79
2023/09/17 08:26:47;;;;;;;3.33;2.97;;;;;;;30.49;99.83;100482.81;5014534;28;20068;-77
2023/09/17 08:29:13;;;;;;;4.78;3.00;;;;;;;30.63;98.14;100474.97;5013630;28;20030;-77
2023/09/17 08:31:46;;;;;;;4.45;3.05;;;;;;;30.67;97.68;100474.50;5024083;28;20036;-77
2023/09/17 08:34:12;;;;;;;3.17;2.85;;;;;;;30.64;99.30;100482.44;5034149;28;20029;-75
2023/09/17 08:36:38;;;;;;;3.88;3.00;;;;;;;30.55;99.89;100469.28;5034121;28;20036;-76
2023/09/17 08:39:15;;;;;;;4.93;3.00;;;;;;;30.40;99.39;100478.53;5033969;28;20026;-76
2023/09/17 08:41:43;;;;;;;6.18;2.75;;;;;;;30.24;100.00;100476.63;5035413;28;20453;-76
2023/09/17 08:44:10;;;;;;;5.57;3.22;;;;;;;29.96;99.36;100475.34;5035512;28;20045;-77
2023/09/17 08:46:37;;;;;;;4.20;3.20;;;;;;;29.62;100.00;100471.44;5033861;28;20459;-78
2023/09/17 08:49:02;;;;;;;2.88;2.55;;;;;;;29.44;100.00;100470.06;5034295;28;20026;-76
2023/09/17 08:51:33;;;;;;;7.63;3.53;;;;;;;29.40;100.00;100468.97;5035414;28;20048;-77
2023/09/17 08:54:29;;;;;;;4.43;3.10;;;;;;;29.44;100.00;100460.44;5035318;28;20178;-76
2023/09/17 08:56:57;;;;;;;4.18;3.00;;;;;;;29.51;100.00;100457.31;5034197;28;20029;-76
2023/09/17 08:59:26;;;;;;;4.50;3.38;;;;;;;29.67;100.00;100463.66;5033284;28;20080;-76
2023/09/17 09:01:52;;;;;;;6.38;2.83;;;;;;;29.72;100.00;100459.63;5017168;28;20385;-77
2023/09/17 09:04:34;;;;;;;3.58;2.70;;;;;;;29.67;100.00;100458.56;5033788;28;20029;-77
2023/09/17 09:07:02;;;;;;;3.15;2.40;;;;;;;29.63;100.00;100458.25;5033554;28;20041;-76
2023/09/17 09:09:31;;;;;;;2.83;2.50;;;;;;;29.64;100.00;100459.78;5033399;28;20051;-74
2023/09/17 09:11:58;;;;;;;5.60;2.50;;;;;;;29.57;100.00;100463.72;5035040;28;20117;-77
2023/09/17 09:14:25;;;;;;;5.53;2.72;;;;;;;29.49;100.00;100456.41;5049965;28;20025;-78
2023/09/17 09:16:50;;;;;;;3.72;2.85;;;;;;;29.46;100.00;100458.44;5016618;28;20072;-75
2023/09/17 09:19:18;;;;;;;3.22;2.63;;;;;;;29.34;100.00;100454.56;5034278;28;20065;-75
2023/09/17 09:21:45;;;;;;;6.45;2.97;;;;;;;29.18;100.00;100444.56;5034411;28;20084;-76
2023/09/17 09:24:11;;;;;;;3.33;2.75;;;;;;;29.09;100.00;100454.16;5049495;28;20033;-75
2023/09/17 09:26:39;;;;;;;2.88;2.67;;;;;;;28.99;100.00;100454.13;5034270;28;20021;-76
2023/09/17 09:29:19;;;;;;;3.58;2.25;;;;;;;28.80;100.00;100457.06;5033084;28;20030;-75
2023/09/17 09:31:46;;;;;;;3.30;2.80;;;;;;;28.74;100.00;100450.72;5034364;28;20056;-75
2023/09/17 09:34:18;;;;;;;10.40;2.90;;;;;;;28.66;100.00;100450.88;5049481;28;20128;-75
2023/09/17 09:36:44;;;;;;;3.95;3.03;;;;;;;28.56;100.00;100450.09;5032224;28;20037;-75
2023/09/17 09:39:14;;;;;;;8.57;2.88;;;;;;;28.43;100.00;100451.31;5031275;28;20037;-75
2023/09/17 09:41:46;;;;;;;3.20;2.92;;;;;;;28.40;100.00;100440.75;5032742;28;20021;-74
2023/09/17 09:44:16;;;;;;;3.42;2.80;;;;;;;28.42;100.00;100446.03;5031603;28;20025;-76
2023/09/17 09:46:44;;;;;;;3.65;2.85;;;;;;;28.39;100.00;100444.34;5032908;28;20052;-76
2023/09/17 09:49:09;;;;;;;3.63;2.97;;;;;;;28.29;100.00;100443.56;5032484;28;20026;-76
2023/09/17 09:51:39;;;;;;;3.50;2.72;;;;;;;28.17;100.00;100428.66;5031263;28;20037;-76
2023/09/17 09:54:09;;;;;;;3.25;2.95;;;;;;;28.22;100.00;100433.47;5031418;28;20025;-74
2023/09/17 09:56:35;;;;;;;6.15;2.35;;;;;;;28.30;100.00;100437.03;5032728;28;20021;-75
2023/09/17 09:59:01;;;;;;;3.15;2.53;;;;;;;28.32;100.00;100436.44;5031156;28;20077;-74
2023/09/17 10:01:27;;;;;;;2.90;2.55;;;;;;;28.39;100.00;100432.59;5033081;28;20073;-75
2023/09/17 10:04:11;;;;;;;3.15;2.90;;;;;;;28.49;100.00;100436.31;5031657;28;20044;-77
2023/09/17 10:06:40;;;;;;;4.35;2.70;;;;;;;28.61;100.00;100425.50;5048751;28;20537;-76
2023/09/17 10:09:10;;;;;;;6.68;2.85;;;;;;;28.68;100.00;100418.69;5032749;28;20026;-76
2023/09/17 10:11:37;;;;;;;4.68;2.50;;;;;;;28.91;100.00;100429.97;5032916;28;20164;-77
2023/09/17 10:14:06;;;;;;;3.10;2.72;;;;;;;29.00;100.00;100434.31;5033149;28;20033;-78
2023/09/17 10:16:36;;;;;;;6.28;2.90;;;;;;;28.97;100.00;100438.50;5034400;28;20104;-75
2023/09/17 10:19:04;;;;;;;3.17;2.65;;;;;;;28.93;100.00;100436.03;5032207;28;20037;-75
2023/09/17 10:21:30;;;;;;;3.03;2.80;;;;;;;28.92;100.00;100436.66;5016051;28;20029;-74
2023/09/17 10:23:57;;;;;;;4.47;2.88;;;;;;;28.83;100.00;100417.59;5047739;28;20489;-75
2023/09/17 10:26:32;;;;;;;4.45;3.00;;;;;;;28.83;100.00;100430.16;5015616;28;20142;-76
2023/09/17 10:29:00;;;;;;;3.88;2.70;;;;;;;28.73;100.00;100426.44;5047035;28;20034;-75
2023/09/17 10:31:27;;;;;;;4.22;3.38;;;;;;;28.66;100.00;100415.59;5032301;28;20033;-76
2023/09/17 10:33:54;;;;;;;4.78;2.83;;;;;;;28.66;100.00;100432.47;5032242;28;20033;-75
2023/09/17 10:36:22;;;;;;;4.43;2.90;;;;;;;28.59;100.00;100427.53;5048793;28;20486;-75
2023/09/17 10:38:49;;;;;;;4.38;2.90;;;;;;;28.47;100.00;100424.41;5032123;28;20040;-75
2023/09/17 10:41:15;;;;;;;3.95;2.55;;;;;;;28.35;100.00;100435.19;5032193;28;20027;-77
2023/09/17 10:43:50;;;;;;;3.17;2.80;;;;;;;28.33;100.00;100426.22;5032339;28;20393;-76
2023/09/17 10:46:19;;;;;;;7.82;3.83;;;;;;;28.33;100.00;100426.22;5048718;28;20389;-76
2023/09/17 10:48:46;;;;;;;3.05;2.70;;;;;;;28.35;100.00;100432.25;5033677;28;20017;-76
2023/09/17 10:51:14;;;;;;;3.75;3.10;;;;;;;28.27;100.00;100423.56;5032731;28;20033;-76
2023/09/17 10:53:54;;;;;;;4.00;2.95;;;;;;;28.18;100.00;100420.63;5032240;28;20037;-77
2023/09/17 10:56:20;;;;;;;7.57;3.10;;;;;;;28.12;100.00;100420.13;5033765;28;20112;-75
2023/09/17 10:58:52;;;;;;;4.55;2.80;;;;;;;28.06;100.00;100417.50;5032881;28;20046;-77
2023/09/17 11:01:35;;;;;;;4.57;3.17;;;;;;;28.01;100.00;100413.47;5013304;28;20463;-76
2023/09/17 11:04:10;;;;;;;3.03;2.72;;;;;;;27.98;100.00;100419.81;5013147;28;20120;-75
2023/09/17 11:06:40;;;;;;;3.35;2.80;;;;;;;27.93;100.00;100420.88;5012352;28;20029;-76
2023/09/17 11:09:06;;;;;;;3.45;2.67;;;;;;;27.86;100.00;100421.72;4996248;28;20030;-74
2023/09/17 11:11:34;;;;;;;3.33;2.75;;;;;;;27.77;100.00;100413.66;5010781;28;20096;-77
2023/09/17 11:14:01;;;;;;;3.40;3.10;;;;;;;27.70;100.00;100408.69;5012445;28;20045;-76
2023/09/17 11:16:29;;;;;;;5.65;3.15;;;;;;;27.62;100.00;100420.56;4996239;28;20030;-75